SBSV/SSA METAR and TAF weather

Enter ICAO airport designator
Station Type Date Time Source
SBSV METAR 2021/08/05 04:00 UTC NOAA

SBSV 050400Z 17010KT 140V220 9999 SCT023 SCT060 24/20 Q1021


Station Type Date Time Source
SBSV Decoded METAR 2021/08/05 04:00 UTC NOAA

Salvador Aeroporto , Brazil (SBSV) 12-54S 038-20W 13M
Aug 05, 2021 - 12:00 AM EDT / 2021.08.05 0400 UTC
Wind: from the S (170 degrees) at 12 MPH (10 KT) (direction variable):0
Visibility: greater than 7 mile(s):0
Sky conditions: partly cloudy
Temperature: 75 F (24 C)
Dew Point: 68 F (20 C)
Relative Humidity: 78%
Pressure (altimeter): 30.15 in. Hg (1021 hPa)
ob: SBSV 050400Z 17010KT 140V220 9999 SCT023 SCT060 24/20 Q1021
cycle: 4

Station Type Date Time Source
SBSV TAF 2021/08/05 06:21 UTC NOAA

TAF SBSV 050400Z 0506/0606 17010KT 9999 SCT020 TN21/0508Z TX25/0518Z
TEMPO 0506/0606 8000 VCSH BKN017 FEW023TCU
RMK PGO

Example: see airport list